Ana Sayfa
METAR-TAF:

METAR-TAF

Havaalanları :

Odessa-Schlemeyer Field

Odessa, Teksas, Amerika Birleşik Devletleri

Enlem: 31-55-17N, Boylam: 102-23-30W, yükseklik: 914 m

Güncel hava durumu gözlemi

Rapor saat 04:24 UTC de 21 dakika önce yapıldı.
Rüzgar doğu/güneydoğudan 7 kt
Sıcaklık 9°C
Nem 93%
Basınç 1017 hPa
Görüş mesafesi: 14.5 km
500 ft yükseklikte az bulutlu
4000 ft yükseklikte parçalı çok bulutlu
4900 ft yükseklikte çok bulutlu

METAR: KODO 100424Z AUTO 11007KT 9SM FEW005 BKN040 OVC049 09/08 A3003 RMK AO2 RAE16 P0000 T00890078 $

Saat: 22:45 (04:45 UTC)


TAF: eksik

4.000'den fazla havaalanı için hava durumu gözlemleri ve tahminleri (METAR ve TAF raporları).

Kullanılabilir istasyonlar harita üzerinde sarı ve kırmızı noktalarla gösterilir.

İstasyonun adını görmek için fareyi noktanın üzerinde gezdirin.

Sonrasında hava gözlem ve tahminlerini görmek için tıklayın.

Haritayı değiştirmek için: yaklaştırmak için siyah artı işaretli yeşil düğmeye ve uzaklaştırmak için de eksi işaretli düğmeye hızla tıklayın; bitişik haritalar için yeşil okları kullanın.


METAR-TAF: